Time;durP1;ratioP1;P1;durP2;ratioP2;P2;SDS_P1;SDS_P2;PMS_P1;PMS_P2;Temp;Humidity;BMP_temperature;BMP_pressure;BME280_temperature;BME280_humidity;BME280_pressure;Samples;Min_cycle;Max_cycle;Signal;HPM_P1;HPM_P2
2022/03/07 00:01:37;;;;;;;13.32;5.65;;;;;;;;;;4821362;29;20145;-63
2022/03/07 00:04:03;;;;;;;;;;;;;;;;;;4821614;29;20426;-63
2022/03/07 00:06:29;;;;;;;13.55;5.40;;;;;;;;;;4821029;29;19936;-63
2022/03/07 00:08:55;;;;;;;14.85;6.05;;;;;;;;;;4821277;29;20046;-63
2022/03/07 00:11:21;;;;;;;16.95;5.72;;;;;;;;;;4820861;29;20050;-63
2022/03/07 00:13:48;;;;;;;15.40;5.63;;;;;;;;;;4821123;29;20482;-63
2022/03/07 00:16:14;;;;;;;;;;;;;;;;;;4804669;29;20137;-63
2022/03/07 00:18:40;;;;;;;16.80;5.50;;;;;;;;;;4820292;29;20012;-63
2022/03/07 00:21:06;;;;;;;16.27;5.28;;;;;;;;;;4821013;29;20073;-63
2022/03/07 00:23:32;;;;;;;16.67;5.90;;;;;;;;;;4820844;29;20114;-63
2022/03/07 00:25:59;;;;;;;14.25;5.60;;;;;;;;;;4820755;29;20046;-64
2022/03/07 00:28:25;;;;;;;17.15;5.75;;;;;;;;;;4821107;29;20103;-63
2022/03/07 00:30:51;;;;;;;13.10;5.70;;;;;;;;;;4820818;29;20054;-64
2022/03/07 00:33:17;;;;;;;15.75;5.78;;;;;;;;;;4820858;29;20195;-63
2022/03/07 00:35:43;;;;;;;14.10;5.70;;;;;;;;;;4821467;29;20085;-63
2022/03/07 00:38:09;;;;;;;16.38;5.50;;;;;;;;;;4822879;29;20042;-63
2022/03/07 00:40:35;;;;;;;14.15;5.47;;;;;;;;;;4820865;29;20058;-64
2022/03/07 00:43:02;;;;;;;14.45;5.57;;;;;;;;;;4820516;29;20148;-63
2022/03/07 00:45:28;;;;;;;15.43;5.50;;;;;;;;;;4820633;29;20050;-63
2022/03/07 00:47:54;;;;;;;13.15;5.38;;;;;;;;;;4820403;29;20054;-64
2022/03/07 00:50:20;;;;;;;14.40;5.13;;;;;;;;;;4820800;29;20051;-63
2022/03/07 00:52:46;;;;;;;17.63;5.80;;;;;;;;;;4820817;29;20058;-64
2022/03/07 00:55:12;;;;;;;12.05;5.53;;;;;;;;;;4820551;29;20161;-64
2022/03/07 00:57:38;;;;;;;13.48;5.75;;;;;;;;;;4820427;29;20054;-63
2022/03/07 01:00:04;;;;;;;11.73;5.20;;;;;;;;;;4820336;29;20130;-64
2022/03/07 01:02:31;;;;;;;12.98;6.25;;;;;;;;;;4820537;29;20050;-64
2022/03/07 01:04:57;;;;;;;13.63;6.28;;;;;;;;;;4820380;29;20055;-64
2022/03/07 01:07:23;;;;;;;14.93;6.20;;;;;;;;;;4820189;29;20065;-63
2022/03/07 01:09:49;;;;;;;18.23;6.22;;;;;;;;;;4820318;29;20050;-64
2022/03/07 01:12:15;;;;;;;15.38;5.28;;;;;;;;;;4820279;29;20383;-63
2022/03/07 01:14:41;;;;;;;16.83;5.00;;;;;;;;;;4820623;29;20473;-63
2022/03/07 01:17:07;;;;;;;15.68;5.63;;;;;;;;;;4820061;29;20069;-64
2022/03/07 01:19:33;;;;;;;13.45;5.60;;;;;;;;;;4803976;29;20086;-64
2022/03/07 01:21:59;;;;;;;10.93;4.85;;;;;;;;;;4820377;29;20091;-64
2022/03/07 01:24:25;;;;;;;13.93;5.60;;;;;;;;;;4834285;29;20058;-63
2022/03/07 01:26:51;;;;;;;13.63;5.65;;;;;;;;;;4820411;29;20050;-63
2022/03/07 01:29:19;;;;;;;13.82;5.40;;;;;;;;;;4820139;29;20480;-64
2022/03/07 01:31:45;;;;;;;14.52;5.55;;;;;;;;;;4820356;29;20050;-64
2022/03/07 01:34:13;;;;;;;12.75;5.10;;;;;;;;;;4820463;29;20144;-63
2022/03/07 01:36:39;;;;;;;14.55;5.45;;;;;;;;;;4820793;29;20054;-64
2022/03/07 01:39:05;;;;;;;12.65;5.43;;;;;;;;;;4820559;29;20042;-63
2022/03/07 01:41:31;;;;;;;16.58;5.50;;;;;;;;;;4820302;29;20077;-63
2022/03/07 01:43:57;;;;;;;14.80;5.55;;;;;;;;;;4820254;29;20070;-63
2022/03/07 01:46:25;;;;;;;15.05;5.95;;;;;;;;;;4820687;29;20102;-64
2022/03/07 01:48:51;;;;;;;16.40;5.88;;;;;;;;;;4821034;29;20046;-64
2022/03/07 01:51:17;;;;;;;12.65;5.43;;;;;;;;;;4823002;29;20352;-63
2022/03/07 01:53:43;;;;;;;15.18;6.28;;;;;;;;;;4823495;29;20046;-64
2022/03/07 01:56:09;;;;;;;10.88;5.43;;;;;;;;;;4822903;29;20488;-64
2022/03/07 01:58:35;;;;;;;13.13;5.97;;;;;;;;;;4823234;29;20412;-64
2022/03/07 02:01:02;;;;;;;15.27;6.30;;;;;;;;;;4806870;29;20119;-63
2022/03/07 02:03:28;;;;;;;15.50;6.35;;;;;;;;;;4823365;29;20055;-63
2022/03/07 02:05:54;;;;;;;12.43;5.57;;;;;;;;;;4823282;29;20074;-64
2022/03/07 02:08:21;;;;;;;13.70;6.60;;;;;;;;;;4836961;29;20087;-63
2022/03/07 02:10:47;;;;;;;15.77;6.03;;;;;;;;;;4823388;29;20046;-63
2022/03/07 02:13:13;;;;;;;15.10;5.95;;;;;;;;;;4823198;29;20090;-64
2022/03/07 02:15:40;;;;;;;16.85;6.03;;;;;;;;;;4823136;29;20058;-63
2022/03/07 02:18:06;;;;;;;15.55;5.82;;;;;;;;;;4836804;29;20061;-64
2022/03/07 02:20:32;;;;;;;14.38;6.30;;;;;;;;;;4822985;29;20449;-64
2022/03/07 02:22:58;;;;;;;15.82;6.05;;;;;;;;;;4836867;29;20076;-63
2022/03/07 02:25:24;;;;;;;18.40;5.55;;;;;;;;;;4822857;29;20462;-64
2022/03/07 02:27:50;;;;;;;14.43;5.90;;;;;;;;;;4823102;29;20053;-64
2022/03/07 02:30:16;;;;;;;15.32;5.50;;;;;;;;;;4822918;29;20086;-64
2022/03/07 02:32:43;;;;;;;12.20;5.70;;;;;;;;;;4836755;29;20089;-64
2022/03/07 02:35:09;;;;;;;;;;;;;;;;;;4822798;29;20058;-64
2022/03/07 02:37:35;;;;;;;14.13;5.93;;;;;;;;;;4823082;29;19948;-64
2022/03/07 02:40:01;;;;;;;14.82;6.50;;;;;;;;;;4822867;29;20115;-64
2022/03/07 02:42:27;;;;;;;13.98;5.95;;;;;;;;;;4806133;29;20460;-64
2022/03/07 02:44:53;;;;;;;15.13;5.70;;;;;;;;;;4823008;29;20144;-64
2022/03/07 02:47:19;;;;;;;14.00;6.07;;;;;;;;;;4822559;29;20188;-64
2022/03/07 02:49:45;;;;;;;15.32;6.32;;;;;;;;;;4822917;29;20092;-64
2022/03/07 02:52:11;;;;;;;12.90;5.93;;;;;;;;;;4822843;29;20050;-64
2022/03/07 02:54:38;;;;;;;14.88;6.40;;;;;;;;;;4822486;29;20100;-64
2022/03/07 02:57:04;;;;;;;13.90;6.75;;;;;;;;;;4822708;29;20058;-64
2022/03/07 02:59:30;;;;;;;17.23;6.72;;;;;;;;;;4822353;29;20086;-64
2022/03/07 03:01:56;;;;;;;16.58;6.68;;;;;;;;;;4806254;29;20054;-64
2022/03/07 03:04:22;;;;;;;14.65;6.35;;;;;;;;;;4822397;29;20061;-64
2022/03/07 03:06:48;;;;;;;14.40;6.78;;;;;;;;;;4822629;29;20061;-64
2022/03/07 03:09:15;;;;;;;14.35;6.85;;;;;;;;;;4822418;29;20130;-64
2022/03/07 03:11:41;;;;;;;14.18;6.57;;;;;;;;;;4822404;29;20145;-64
2022/03/07 03:14:07;;;;;;;14.63;6.18;;;;;;;;;;4822254;29;20140;-64
2022/03/07 03:16:33;;;;;;;14.57;6.95;;;;;;;;;;4822574;29;20077;-64
2022/03/07 03:18:59;;;;;;;17.65;7.60;;;;;;;;;;4836198;29;20047;-64
2022/03/07 03:21:26;;;;;;;13.95;7.20;;;;;;;;;;4822214;29;20500;-64
2022/03/07 03:23:52;;;;;;;17.50;7.50;;;;;;;;;;4835642;29;20145;-64
2022/03/07 03:26:18;;;;;;;18.23;7.72;;;;;;;;;;4822092;29;20137;-64
2022/03/07 03:28:44;;;;;;;16.35;7.32;;;;;;;;;;4822253;29;20462;-64
2022/03/07 03:31:11;;;;;;;15.32;7.38;;;;;;;;;;4805649;29;20086;-64
2022/03/07 03:33:38;;;;;;;18.60;8.18;;;;;;;;;;4822117;29;20058;-64
2022/03/07 03:36:04;;;;;;;17.77;8.52;;;;;;;;;;4836283;29;20428;-64
2022/03/07 03:38:30;;;;;;;15.55;9.07;;;;;;;;;;4822125;29;20460;-64
2022/03/07 03:40:56;;;;;;;16.33;8.65;;;;;;;;;;4821663;29;20123;-64
2022/03/07 03:43:22;;;;;;;18.25;8.48;;;;;;;;;;4821531;29;20105;-64
2022/03/07 03:45:48;;;;;;;20.58;8.50;;;;;;;;;;4835470;29;20069;-64
2022/03/07 03:48:15;;;;;;;20.17;9.20;;;;;;;;;;4821811;29;20115;-64
2022/03/07 03:50:41;;;;;;;21.50;9.65;;;;;;;;;;4835622;29;20134;-64
2022/03/07 03:53:07;;;;;;;19.05;9.45;;;;;;;;;;4821647;29;20050;-64
2022/03/07 03:55:33;;;;;;;20.08;9.27;;;;;;;;;;4821925;29;20406;-64
2022/03/07 03:57:59;;;;;;;20.80;9.35;;;;;;;;;;4805365;29;20127;-64
2022/03/07 04:00:25;;;;;;;20.55;10.20;;;;;;;;;;4821512;29;20360;-64
2022/03/07 04:02:51;;;;;;;17.10;9.32;;;;;;;;;;4805453;29;20070;-64
2022/03/07 04:05:17;;;;;;;;;;;;;;;;;;4821795;29;20060;-64
2022/03/07 04:07:44;;;;;;;19.63;9.75;;;;;;;;;;4821542;29;20024;-64
2022/03/07 04:10:13;;;;;;;18.90;10.60;;;;;;;;;;4821585;29;20042;-64
2022/03/07 04:12:39;;;;;;;21.63;10.68;;;;;;;;;;4820654;29;20050;-64
2022/03/07 04:15:05;;;;;;;;;;;;;;;;;;4821889;29;20074;-64
2022/03/07 04:17:31;;;;;;;19.60;10.57;;;;;;;;;;4804712;29;20443;-64
2022/03/07 04:19:58;;;;;;;23.52;11.10;;;;;;;;;;4804214;29;20575;-64
2022/03/07 04:22:24;;;;;;;25.13;12.30;;;;;;;;;;4835293;29;20103;-64
2022/03/07 04:24:50;;;;;;;21.65;11.68;;;;;;;;;;4821080;29;20054;-64
2022/03/07 04:27:16;;;;;;;19.83;11.65;;;;;;;;;;4821697;29;20120;-64
2022/03/07 04:29:42;;;;;;;21.73;11.32;;;;;;;;;;4821531;29;20070;-64
2022/03/07 04:32:08;;;;;;;20.75;11.05;;;;;;;;;;4821401;29;20054;-64
2022/03/07 04:34:37;;;;;;;22.95;11.55;;;;;;;;;;4835227;29;20062;-64
2022/03/07 04:37:03;;;;;;;23.33;12.63;;;;;;;;;;4821300;29;20154;-64
2022/03/07 04:39:29;;;;;;;26.08;13.68;;;;;;;;;;4834774;29;20050;-64
2022/03/07 04:41:55;;;;;;;19.73;11.93;;;;;;;;;;4820710;29;20058;-64
2022/03/07 04:44:21;;;;;;;23.50;12.65;;;;;;;;;;4821464;29;20091;-64
2022/03/07 04:46:47;;;;;;;19.20;11.68;;;;;;;;;;4834699;29;20050;-64
2022/03/07 04:49:13;;;;;;;21.55;12.50;;;;;;;;;;4804714;29;20151;-64
2022/03/07 04:51:45;;;;;;;21.85;12.68;;;;;;;;;;4820993;29;20437;-64
2022/03/07 04:54:11;;;;;;;21.95;12.60;;;;;;;;;;4821218;29;20058;-64
2022/03/07 04:56:37;;;;;;;24.60;13.07;;;;;;;;;;4804087;29;20448;-64
2022/03/07 04:59:03;;;;;;;22.23;12.75;;;;;;;;;;4820790;29;20046;-64
2022/03/07 05:01:29;;;;;;;21.58;11.77;;;;;;;;;;4820899;29;20428;-64
2022/03/07 05:03:55;;;;;;;21.98;11.93;;;;;;;;;;4820835;29;20061;-64
2022/03/07 05:06:21;;;;;;;25.58;13.48;;;;;;;;;;4834678;29;20058;-64
2022/03/07 05:08:47;;;;;;;25.70;13.00;;;;;;;;;;4834915;29;20109;-64
2022/03/07 05:11:13;;;;;;;26.48;13.35;;;;;;;;;;4804192;29;20061;-64
2022/03/07 05:13:41;;;;;;;25.05;13.32;;;;;;;;;;4834905;29;20141;-64
2022/03/07 05:16:07;;;;;;;24.00;12.80;;;;;;;;;;4804319;29;20474;-64
2022/03/07 05:18:34;;;;;;;23.65;12.13;;;;;;;;;;4820576;29;20059;-64
2022/03/07 05:21:00;;;;;;;25.25;12.95;;;;;;;;;;4820870;29;20103;-64
2022/03/07 05:23:26;;;;;;;23.02;12.23;;;;;;;;;;4821144;29;20058;-64
2022/03/07 05:25:52;;;;;;;24.63;13.05;;;;;;;;;;4824203;29;20138;-64
2022/03/07 05:28:18;;;;;;;26.05;13.25;;;;;;;;;;4824234;29;20050;-64
2022/03/07 05:30:44;;;;;;;25.20;12.80;;;;;;;;;;4823990;29;20099;-64
2022/03/07 05:33:10;;;;;;;24.00;12.95;;;;;;;;;;4824241;29;20129;-64
2022/03/07 05:35:36;;;;;;;24.05;13.02;;;;;;;;;;4824359;29;20135;-64
2022/03/07 05:38:04;;;;;;;21.98;12.48;;;;;;;;;;4824384;29;20128;-64
2022/03/07 05:40:30;;;;;;;28.58;12.88;;;;;;;;;;4824189;29;20094;-64
2022/03/07 05:42:56;;;;;;;24.98;13.88;;;;;;;;;;4824172;29;20069;-64
2022/03/07 05:45:22;;;;;;;24.20;12.98;;;;;;;;;;4838289;29;20118;-64
2022/03/07 05:47:48;;;;;;;24.58;13.50;;;;;;;;;;4823866;29;20129;-64
2022/03/07 05:50:14;;;;;;;24.23;13.43;;;;;;;;;;4823893;29;20046;-64
2022/03/07 05:52:40;;;;;;;25.55;13.18;;;;;;;;;;4823967;29;20054;-64
2022/03/07 05:55:07;;;;;;;25.25;13.70;;;;;;;;;;4823873;29;20143;-64
2022/03/07 05:57:34;;;;;;;25.08;13.32;;;;;;;;;;4837503;29;20141;-64
2022/03/07 06:00:00;;;;;;;;;;;;;;;;;;4823581;29;20058;-64
2022/03/07 06:02:26;;;;;;;23.52;11.13;;;;;;;;;;4823183;29;19925;-64
2022/03/07 06:04:52;;;;;;;31.20;14.98;;;;;;;;;;4823000;29;20061;-64
2022/03/07 06:07:18;;;;;;;26.50;13.77;;;;;;;;;;4806045;29;20380;-64
2022/03/07 06:09:44;;;;;;;24.92;13.60;;;;;;;;;;4821438;29;20500;-64
2022/03/07 06:12:10;;;;;;;26.25;13.45;;;;;;;;;;4821589;29;20241;-64
2022/03/07 06:14:36;;;;;;;21.17;12.38;;;;;;;;;;4821469;29;20053;-64
2022/03/07 06:17:02;;;;;;;27.33;12.18;;;;;;;;;;4804524;29;20492;-64
2022/03/07 06:19:28;;;;;;;23.67;12.02;;;;;;;;;;4821684;29;20050;-64
2022/03/07 06:21:55;;;;;;;27.35;10.65;;;;;;;;;;4835326;29;20057;-64
2022/03/07 06:24:21;;;;;;;20.90;11.45;;;;;;;;;;4835432;29;20054;-63
2022/03/07 06:26:47;;;;;;;21.90;11.00;;;;;;;;;;4835346;29;20069;-64
2022/03/07 06:29:13;;;;;;;20.83;10.73;;;;;;;;;;4821077;29;20077;-63
2022/03/07 06:31:39;;;;;;;22.55;11.55;;;;;;;;;;4804956;29;20440;-63
2022/03/07 06:34:05;;;;;;;25.25;11.57;;;;;;;;;;4820856;29;20154;-63
2022/03/07 06:36:31;;;;;;;26.05;11.65;;;;;;;;;;4821011;29;20133;-63
2022/03/07 06:38:57;;;;;;;20.23;12.05;;;;;;;;;;4835315;29;20050;-63
2022/03/07 06:41:26;;;;;;;23.23;11.13;;;;;;;;;;4821235;29;20490;-63
2022/03/07 06:43:52;;;;;;;24.50;10.95;;;;;;;;;;4820825;29;20444;-63
2022/03/07 06:46:18;;;;;;;24.80;11.93;;;;;;;;;;4804767;29;20058;-63
2022/03/07 06:48:44;;;;;;;19.02;11.63;;;;;;;;;;4819424;29;20103;-63
2022/03/07 06:51:10;;;;;;;20.63;10.95;;;;;;;;;;4820812;29;20114;-63
2022/03/07 06:53:36;;;;;;;21.60;11.15;;;;;;;;;;4834637;29;20109;-63
2022/03/07 06:56:03;;;;;;;19.00;9.85;;;;;;;;;;4820410;29;20054;-63
2022/03/07 06:58:29;;;;;;;21.30;11.02;;;;;;;;;;4820915;29;20062;-63
2022/03/07 07:00:55;;;;;;;19.88;10.25;;;;;;;;;;4834429;29;20092;-63
2022/03/07 07:03:21;;;;;;;19.05;9.95;;;;;;;;;;4821171;29;20050;-64
2022/03/07 07:05:47;;;;;;;19.98;10.48;;;;;;;;;;4820930;29;20050;-63
2022/03/07 07:08:13;;;;;;;22.48;11.13;;;;;;;;;;4821013;29;20055;-63
2022/03/07 07:10:40;;;;;;;21.02;10.50;;;;;;;;;;4820785;29;20154;-63
2022/03/07 07:13:06;;;;;;;17.85;10.75;;;;;;;;;;4834470;29;20074;-63
2022/03/07 07:15:32;;;;;;;;;;;;;;;;;;4821352;29;20073;-64
2022/03/07 07:18:00;;;;;;;18.13;9.90;;;;;;;;;;4820510;29;19925;-63
2022/03/07 07:20:26;;;;;;;21.65;10.63;;;;;;;;;;4820360;29;20054;-63
2022/03/07 07:22:52;;;;;;;18.20;10.60;;;;;;;;;;4803759;29;20102;-64
2022/03/07 07:25:18;;;;;;;18.48;11.05;;;;;;;;;;4834544;29;20065;-64
2022/03/07 07:27:44;;;;;;;20.70;11.52;;;;;;;;;;4819917;29;20498;-64
2022/03/07 07:30:10;;;;;;;21.95;12.20;;;;;;;;;;4820258;29;20061;-64
2022/03/07 07:32:38;;;;;;;20.95;12.10;;;;;;;;;;4833709;29;20046;-64
2022/03/07 07:35:05;;;;;;;20.83;12.18;;;;;;;;;;4819418;29;20491;-63
2022/03/07 07:37:31;;;;;;;24.92;12.77;;;;;;;;;;4820238;29;20069;-63
2022/03/07 07:39:57;;;;;;;18.25;11.18;;;;;;;;;;4820098;29;20198;-64
2022/03/07 07:42:24;;;;;;;20.63;11.70;;;;;;;;;;4819530;29;20138;-64
2022/03/07 07:44:50;;;;;;;20.15;12.10;;;;;;;;;;4819861;29;20070;-64
2022/03/07 07:47:17;;;;;;;21.83;12.40;;;;;;;;;;4818666;29;20100;-64
2022/03/07 07:49:43;;;;;;;21.20;12.13;;;;;;;;;;4833272;29;20054;-64
2022/03/07 07:52:09;;;;;;;23.27;11.90;;;;;;;;;;4820389;29;20058;-64
2022/03/07 07:54:35;;;;;;;23.02;12.32;;;;;;;;;;4834088;29;20054;-63
2022/03/07 07:57:05;;;;;;;22.45;10.27;;;;;;;;;;4819595;29;20053;-64
2022/03/07 07:59:31;;;;;;;19.90;10.57;;;;;;;;;;4819451;29;20095;-64
2022/03/07 08:01:57;;;;;;;20.10;10.68;;;;;;;;;;4820594;29;20065;-64
2022/03/07 08:04:23;;;;;;;20.15;10.60;;;;;;;;;;4820403;29;20082;-64
2022/03/07 08:06:49;;;;;;;22.48;10.25;;;;;;;;;;4832975;29;20050;-65
2022/03/07 08:09:16;;;;;;;18.45;9.55;;;;;;;;;;4820084;29;20518;-64
2022/03/07 08:11:42;;;;;;;16.90;9.30;;;;;;;;;;4819737;29;20523;-64
2022/03/07 08:14:08;;;;;;;16.52;9.43;;;;;;;;;;4819580;29;20058;-64
2022/03/07 08:16:36;;;;;;;22.45;9.50;;;;;;;;;;4819339;29;20066;-64
2022/03/07 08:19:02;;;;;;;17.90;9.63;;;;;;;;;;4818679;29;20054;-64
2022/03/07 08:21:28;;;;;;;21.48;9.75;;;;;;;;;;4802426;29;20157;-63
2022/03/07 08:23:54;;;;;;;22.27;10.27;;;;;;;;;;4832600;29;20077;-64
2022/03/07 08:26:21;;;;;;;20.75;10.27;;;;;;;;;;4819135;29;20046;-64
2022/03/07 08:28:47;;;;;;;20.38;10.20;;;;;;;;;;4818701;29;20073;-63
2022/03/07 08:31:13;;;;;;;22.05;9.50;;;;;;;;;;4818596;29;20468;-64
2022/03/07 08:33:39;;;;;;;21.33;9.95;;;;;;;;;;4802529;29;20401;-64
2022/03/07 08:36:08;;;;;;;20.77;7.93;;;;;;;;;;4819718;29;20058;-64
2022/03/07 08:38:35;;;;;;;18.33;7.78;;;;;;;;;;4819519;29;20140;-63
2022/03/07 08:41:01;;;;;;;14.63;6.93;;;;;;;;;;4831954;29;20054;-64
2022/03/07 08:43:27;;;;;;;;;;;;;;;;;;4819278;29;20062;-64
2022/03/07 08:45:53;;;;;;;15.63;6.38;;;;;;;;;;4802300;29;20020;-64
2022/03/07 08:48:19;;;;;;;14.52;6.45;;;;;;;;;;4819345;29;20050;-64
2022/03/07 08:50:48;;;;;;;16.40;6.35;;;;;;;;;;4819075;29;20055;-64
2022/03/07 08:53:17;;;;;;;16.58;6.47;;;;;;;;;;4818815;29;20120;-64
2022/03/07 08:55:44;;;;;;;13.57;6.47;;;;;;;;;;4818479;29;20050;-64
2022/03/07 08:58:10;;;;;;;16.63;6.78;;;;;;;;;;4820373;29;20069;-64
2022/03/07 09:00:36;;;;;;;17.27;6.97;;;;;;;;;;4821951;29;20047;-64
2022/03/07 09:03:04;;;;;;;17.35;6.07;;;;;;;;;;4821849;29;20061;-65
2022/03/07 09:05:30;;;;;;;14.30;5.57;;;;;;;;;;4822351;29;20132;-65
2022/03/07 09:07:56;;;;;;;13.88;5.28;;;;;;;;;;4805854;29;20061;-66
2022/03/07 09:10:22;;;;;;;16.27;5.38;;;;;;;;;;4822250;29;20145;-64
2022/03/07 09:12:49;;;;;;;17.15;5.05;;;;;;;;;;4822198;29;20111;-65
2022/03/07 09:15:15;;;;;;;14.77;5.15;;;;;;;;;;4836126;29;20062;-65
2022/03/07 09:17:42;;;;;;;13.43;4.85;;;;;;;;;;4822055;29;20467;-64
2022/03/07 09:20:11;;;;;;;14.35;4.63;;;;;;;;;;4805774;29;20153;-65
2022/03/07 09:22:37;;;;;;;12.45;4.72;;;;;;;;;;4821774;29;20472;-64
2022/03/07 09:25:04;;;;;;;13.02;5.20;;;;;;;;;;4805353;29;20054;-64
2022/03/07 09:27:30;;;;;;;11.93;4.50;;;;;;;;;;4821910;29;20054;-65
2022/03/07 09:29:56;;;;;;;14.07;5.00;;;;;;;;;;4821751;29;20512;-64
2022/03/07 09:32:22;;;;;;;13.80;4.95;;;;;;;;;;4822014;29;20109;-65
2022/03/07 09:34:48;;;;;;;13.40;4.75;;;;;;;;;;4821719;29;20118;-65
2022/03/07 09:37:14;;;;;;;10.57;4.78;;;;;;;;;;4819997;29;20085;-65
2022/03/07 09:39:40;;;;;;;15.73;5.10;;;;;;;;;;4821641;29;20057;-65
2022/03/07 09:42:07;;;;;;;14.07;5.20;;;;;;;;;;4819928;29;20058;-64
2022/03/07 09:44:33;;;;;;;12.00;4.38;;;;;;;;;;4821596;29;20062;-65
2022/03/07 09:47:00;;;;;;;13.38;4.63;;;;;;;;;;4821855;29;20047;-64
2022/03/07 09:49:26;;;;;;;13.35;4.60;;;;;;;;;;4821460;29;20051;-65
2022/03/07 09:51:54;;;;;;;11.20;5.00;;;;;;;;;;4805310;29;20165;-65
2022/03/07 09:54:23;;;;;;;11.77;5.30;;;;;;;;;;4805038;29;20496;-65
2022/03/07 09:56:49;;;;;;;12.80;4.35;;;;;;;;;;4804725;29;20051;-65
2022/03/07 09:59:16;;;;;;;16.48;4.70;;;;;;;;;;4835450;29;20068;-64
2022/03/07 10:01:42;;;;;;;9.77;3.70;;;;;;;;;;4821567;29;20172;-65
2022/03/07 10:04:17;;;;;;;12.27;4.20;;;;;;;;;;4821696;29;20094;-63
2022/03/07 10:06:50;;;;;;;15.13;4.07;;;;;;;;;;4821584;29;20124;-63
2022/03/07 10:09:21;;;;;;;12.98;4.03;;;;;;;;;;4820201;29;20054;-64
2022/03/07 10:11:51;;;;;;;15.73;4.57;;;;;;;;;;4821387;29;20097;-63
2022/03/07 10:14:17;;;;;;;12.93;4.25;;;;;;;;;;4821122;29;20058;-63
2022/03/07 10:16:44;;;;;;;12.60;4.25;;;;;;;;;;4822725;29;20057;-62
2022/03/07 10:19:14;;;;;;;13.73;4.10;;;;;;;;;;4822438;29;20066;-64
2022/03/07 10:21:47;;;;;;;13.52;4.78;;;;;;;;;;4821282;29;20061;-63
2022/03/07 10:24:13;;;;;;;9.90;4.20;;;;;;;;;;4821475;29;20455;-63
2022/03/07 10:26:39;;;;;;;17.95;4.90;;;;;;;;;;4821308;29;20154;-63
2022/03/07 10:29:06;;;;;;;14.63;4.22;;;;;;;;;;4821236;29;20050;-64
2022/03/07 10:31:32;;;;;;;14.77;4.50;;;;;;;;;;4804876;29;20104;-62
2022/03/07 10:34:06;;;;;;;15.75;4.70;;;;;;;;;;4821244;29;20452;-62
2022/03/07 10:36:37;;;;;;;15.95;4.55;;;;;;;;;;4835389;29;20165;-64
2022/03/07 10:39:05;;;;;;;14.75;4.20;;;;;;;;;;4821276;29;20118;-63
2022/03/07 10:41:49;;;;;;;14.25;4.60;;;;;;;;;;4804296;29;20054;-64
2022/03/07 10:44:34;;;;;;;14.50;4.80;;;;;;;;;;4817198;29;20501;-62
2022/03/07 10:47:14;;;;;;;14.85;5.28;;;;;;;;;;4785663;29;20091;-64
2022/03/07 10:49:51;;;;;;;15.48;5.20;;;;;;;;;;4786023;29;20122;-62
2022/03/07 10:52:17;;;;;;;10.65;3.92;;;;;;;;;;4784860;30;20485;-63
2022/03/07 10:54:43;;;;;;;11.27;4.10;;;;;;;;;;4784614;30;20491;-64
2022/03/07 10:57:12;;;;;;;8.57;3.50;;;;;;;;;;4784933;30;20150;-66
2022/03/07 10:59:38;;;;;;;11.15;4.20;;;;;;;;;;4784462;30;20087;-64
2022/03/07 11:02:06;;;;;;;15.10;4.10;;;;;;;;;;4784437;30;20055;-64
2022/03/07 11:04:36;;;;;;;13.68;4.40;;;;;;;;;;4784791;29;20059;-62
2022/03/07 11:07:02;;;;;;;12.32;3.75;;;;;;;;;;4784399;29;20139;-62
2022/03/07 11:09:28;;;;;;;12.65;4.15;;;;;;;;;;4784357;30;20551;-62
2022/03/07 11:11:54;;;;;;;10.73;3.72;;;;;;;;;;4783284;30;20453;-62
2022/03/07 11:14:20;;;;;;;10.80;4.05;;;;;;;;;;4784292;30;20179;-62
2022/03/07 11:16:49;;;;;;;10.32;4.32;;;;;;;;;;4813015;29;20054;-62
2022/03/07 11:19:17;;;;;;;12.27;3.90;;;;;;;;;;4782575;30;20378;-62
2022/03/07 11:21:43;;;;;;;10.73;3.67;;;;;;;;;;4784209;29;20059;-62
2022/03/07 11:24:10;;;;;;;10.98;3.92;;;;;;;;;;4784010;30;20052;-62
2022/03/07 11:26:41;;;;;;;11.27;3.88;;;;;;;;;;4784519;30;20055;-63
2022/03/07 11:29:08;;;;;;;13.63;3.80;;;;;;;;;;4784116;29;20116;-67
2022/03/07 11:31:34;;;;;;;11.30;3.50;;;;;;;;;;4783860;30;20051;-63
2022/03/07 11:34:05;;;;;;;10.27;3.40;;;;;;;;;;4784348;29;20051;-63
2022/03/07 11:36:31;;;;;;;11.48;3.63;;;;;;;;;;4783448;30;20484;-62
2022/03/07 11:38:59;;;;;;;9.32;3.40;;;;;;;;;;4782375;30;20047;-62
2022/03/07 11:41:25;;;;;;;7.32;2.53;;;;;;;;;;4784530;30;20122;-62
2022/03/07 11:44:01;;;;;;;7.00;2.40;;;;;;;;;;4807079;29;20073;-63
2022/03/07 11:46:32;;;;;;;7.03;2.78;;;;;;;;;;4803801;29;20119;-61
2022/03/07 11:48:59;;;;;;;8.18;2.65;;;;;;;;;;4820186;29;20070;-62
2022/03/07 11:51:25;;;;;;;;;;;;;;;;;;4820590;29;20054;-64
2022/03/07 11:53:53;;;;;;;10.85;3.00;;;;;;;;;;4819825;29;19948;-62
2022/03/07 11:56:21;;;;;;;8.85;2.80;;;;;;;;;;4820136;29;20046;-63
2022/03/07 11:58:53;;;;;;;9.13;2.90;;;;;;;;;;4819822;29;20066;-62
2022/03/07 12:01:19;;;;;;;8.52;2.60;;;;;;;;;;4819395;29;20117;-63
2022/03/07 12:03:47;;;;;;;7.63;2.53;;;;;;;;;;4833249;29;20061;-62
2022/03/07 12:06:14;;;;;;;8.90;2.75;;;;;;;;;;4819589;29;20062;-62
2022/03/07 12:08:43;;;;;;;11.95;2.97;;;;;;;;;;4820005;29;20522;-62
2022/03/07 12:11:10;;;;;;;8.40;2.50;;;;;;;;;;4821323;29;20198;-61
2022/03/07 12:13:45;;;;;;;8.25;2.60;;;;;;;;;;4820350;29;20198;-62
2022/03/07 12:16:12;;;;;;;7.85;2.70;;;;;;;;;;4819486;29;20351;-62
2022/03/07 12:18:38;;;;;;;8.48;2.45;;;;;;;;;;4833123;29;20133;-63
2022/03/07 12:21:04;;;;;;;8.68;2.78;;;;;;;;;;4819416;29;20123;-62
2022/03/07 12:23:35;;;;;;;8.07;2.65;;;;;;;;;;4818967;29;20357;-62
2022/03/07 12:26:05;;;;;;;8.02;3.13;;;;;;;;;;4819327;29;20056;-62
2022/03/07 12:28:35;;;;;;;9.10;3.08;;;;;;;;;;4819547;29;20224;-62
2022/03/07 12:31:02;;;;;;;11.40;3.10;;;;;;;;;;4819913;29;20172;-63
2022/03/07 12:33:29;;;;;;;11.35;2.60;;;;;;;;;;4833216;29;20058;-63
2022/03/07 12:36:12;;;;;;;9.10;2.63;;;;;;;;;;4819091;29;20092;-63
2022/03/07 12:38:48;;;;;;;8.95;2.83;;;;;;;;;;4819341;29;20073;-62
2022/03/07 12:41:15;;;;;;;6.82;2.40;;;;;;;;;;4819368;29;20093;-62
2022/03/07 12:43:46;;;;;;;8.10;2.22;;;;;;;;;;4818605;29;20078;-62
2022/03/07 12:46:15;;;;;;;8.85;2.85;;;;;;;;;;4819210;29;20066;-63
2022/03/07 12:48:45;;;;;;;6.60;2.83;;;;;;;;;;4819143;29;20061;-62
2022/03/07 12:51:16;;;;;;;7.57;2.13;;;;;;;;;;4832946;29;20126;-63
2022/03/07 12:53:55;;;;;;;5.25;2.03;;;;;;;;;;4819456;29;20115;-63
2022/03/07 12:56:26;;;;;;;8.85;2.47;;;;;;;;;;4819295;29;20061;-63
2022/03/07 12:58:57;;;;;;;8.95;3.15;;;;;;;;;;4819786;29;20479;-62
2022/03/07 13:01:27;;;;;;;9.70;3.08;;;;;;;;;;4819392;29;20134;-64
2022/03/07 13:03:53;;;;;;;9.50;3.03;;;;;;;;;;4832639;29;20076;-63
2022/03/07 13:06:19;;;;;;;;;;;;;;;;;;4820066;29;20066;-62
2022/03/07 13:08:55;;;;;;;9.43;3.33;;;;;;;;;;4818880;29;19931;-63
2022/03/07 13:11:42;;;;;;;11.82;3.80;;;;;;;;;;4819279;29;20131;-62
2022/03/07 13:14:09;;;;;;;10.63;3.72;;;;;;;;;;4819314;29;20137;-62
2022/03/07 13:16:36;;;;;;;9.38;3.70;;;;;;;;;;4832462;29;20050;-61
2022/03/07 13:19:06;;;;;;;9.40;3.70;;;;;;;;;;4818744;29;20054;-62
2022/03/07 13:21:35;;;;;;;9.93;3.92;;;;;;;;;;4818703;29;20050;-61
2022/03/07 13:24:02;;;;;;;9.88;4.05;;;;;;;;;;4818759;29;20058;-62
2022/03/07 13:26:28;;;;;;;14.00;5.72;;;;;;;;;;4818646;29;20063;-63
2022/03/07 13:29:02;;;;;;;10.38;4.65;;;;;;;;;;4818836;29;20453;-62
2022/03/07 13:31:28;;;;;;;12.45;4.63;;;;;;;;;;4802545;29;20084;-63
2022/03/07 13:33:58;;;;;;;12.75;4.30;;;;;;;;;;4802813;29;20387;-62
2022/03/07 13:36:24;;;;;;;9.48;4.38;;;;;;;;;;4833016;29;20054;-61
2022/03/07 13:38:50;;;;;;;;;;;;;;;;;;4819742;29;20079;-61
2022/03/07 13:41:16;;;;;;;12.70;4.80;;;;;;;;;;4818411;29;19981;-62
2022/03/07 13:43:42;;;;;;;11.63;4.78;;;;;;;;;;4831975;29;20092;-63
2022/03/07 13:46:16;;;;;;;9.77;4.45;;;;;;;;;;4822004;29;20133;-62
2022/03/07 13:48:42;;;;;;;10.27;4.40;;;;;;;;;;4822784;29;20381;-65
2022/03/07 13:51:08;;;;;;;10.75;4.20;;;;;;;;;;4822747;29;20095;-62
2022/03/07 13:53:38;;;;;;;7.88;3.25;;;;;;;;;;4822590;29;20046;-63
2022/03/07 13:56:05;;;;;;;10.05;3.30;;;;;;;;;;4822753;29;20067;-62
2022/03/07 13:58:32;;;;;;;9.40;3.38;;;;;;;;;;4835828;29;20054;-62
2022/03/07 14:01:09;;;;;;;10.85;3.40;;;;;;;;;;4805041;29;20046;-62
2022/03/07 14:03:36;;;;;;;7.88;3.15;;;;;;;;;;4821570;29;20133;-61
2022/03/07 14:06:03;;;;;;;8.77;2.83;;;;;;;;;;4805430;29;20409;-61
2022/03/07 14:08:40;;;;;;;7.78;2.72;;;;;;;;;;4821793;29;20050;-64
2022/03/07 14:11:13;;;;;;;7.82;2.67;;;;;;;;;;4822357;29;20152;-63
2022/03/07 14:13:42;;;;;;;7.75;2.80;;;;;;;;;;4822043;29;20062;-62
2022/03/07 14:16:08;;;;;;;7.38;2.42;;;;;;;;;;4821610;29;20446;-63
2022/03/07 14:18:35;;;;;;;7.55;2.50;;;;;;;;;;4821323;29;20054;-64
2022/03/07 14:21:01;;;;;;;7.82;2.60;;;;;;;;;;4821852;29;20431;-62
2022/03/07 14:23:27;;;;;;;7.40;2.50;;;;;;;;;;4835119;29;20054;-65
2022/03/07 14:25:55;;;;;;;8.02;2.40;;;;;;;;;;4821232;29;20077;-64
2022/03/07 14:28:21;;;;;;;8.30;2.40;;;;;;;;;;4821275;29;20062;-63
2022/03/07 14:30:47;;;;;;;4.93;2.10;;;;;;;;;;4821214;29;20147;-62